createdAt,value
2018-04-12T00:00:37.362Z,61.80
2018-04-12T00:03:04.899Z,63.43
2018-04-12T00:05:32.428Z,66.63
2018-04-12T00:08:00.733Z,53.37
2018-04-12T00:10:28.255Z,62.00
2018-04-12T00:12:55.786Z,57.10
2018-04-12T00:15:23.311Z,63.20
2018-04-12T00:17:51.622Z,68.20
2018-04-12T00:20:19.138Z,59.67
2018-04-12T00:22:46.677Z,63.23
2018-04-12T00:25:14.288Z,58.53
2018-04-12T00:27:41.824Z,57.83
2018-04-12T00:30:09.378Z,60.77
2018-04-12T00:32:36.976Z,65.90
2018-04-12T00:35:05.446Z,63.13
2018-04-12T00:37:33.004Z,61.73
2018-04-12T00:40:00.535Z,72.60
2018-04-12T00:42:28.056Z,68.80
2018-04-12T00:44:55.603Z,62.50
2018-04-12T00:47:24.038Z,60.70
2018-04-12T00:49:51.575Z,63.17
2018-04-12T00:52:19.098Z,62.63
2018-04-12T00:54:46.659Z,67.37
2018-04-12T00:57:14.272Z,65.13
2018-04-12T00:59:41.889Z,65.87
2018-04-12T01:02:09.429Z,58.10
2018-04-12T01:04:36.990Z,67.50
2018-04-12T01:07:04.611Z,63.83
2018-04-12T01:09:32.923Z,61.10
2018-04-12T01:12:00.449Z,61.80
2018-04-12T01:14:27.989Z,61.30
2018-04-12T01:16:55.522Z,63.67
2018-04-12T01:19:23.067Z,65.27
2018-04-12T01:21:50.642Z,63.27
2018-04-12T01:24:18.175Z,71.13
2018-04-12T01:26:45.706Z,72.77
2018-04-12T01:29:13.243Z,65.40
2018-04-12T01:31:40.772Z,63.03
2018-04-12T01:34:09.086Z,66.83
2018-04-12T01:36:36.609Z,78.47
2018-04-12T01:39:04.137Z,65.13
2018-04-12T01:41:31.684Z,61.37
2018-04-12T01:43:59.203Z,61.07
2018-04-12T01:46:27.509Z,67.40
2018-04-12T01:48:55.063Z,68.63
2018-04-12T01:51:22.598Z,62.97
2018-04-12T01:53:50.131Z,73.83
2018-04-12T01:56:17.676Z,67.50
2018-04-12T01:58:45.194Z,65.47
2018-04-12T02:01:13.496Z,65.27
2018-04-12T02:03:41.043Z,70.17
2018-04-12T02:06:08.578Z,64.07
2018-04-12T02:08:36.102Z,66.10
2018-04-12T02:11:03.637Z,68.40
2018-04-12T02:13:31.943Z,78.60
2018-04-12T02:15:59.474Z,67.37
2018-04-12T02:18:26.993Z,59.47
2018-04-12T02:20:54.542Z,65.57
2018-04-12T02:23:22.071Z,69.40
2018-04-12T02:25:50.389Z,70.20
2018-04-12T02:28:17.910Z,70.03
2018-04-12T02:30:45.477Z,65.40
2018-04-12T02:33:13.002Z,63.20
2018-04-12T02:35:40.576Z,67.20
2018-04-12T02:38:09.428Z,70.07
2018-04-12T02:40:37.077Z,65.53
2018-04-12T02:43:04.606Z,72.27
2018-04-12T02:45:32.141Z,65.57
2018-04-12T02:47:59.664Z,66.83
2018-04-12T02:50:27.946Z,69.70
2018-04-12T02:52:55.507Z,63.73
2018-04-12T02:55:23.061Z,75.20
2018-04-12T02:57:50.591Z,72.27
2018-04-12T03:00:18.110Z,70.27
2018-04-12T03:02:46.514Z,67.93
2018-04-12T03:05:14.066Z,61.50
2018-04-12T03:07:41.640Z,92.57
2018-04-12T03:10:09.682Z,64.30
2018-04-12T03:12:37.235Z,70.30
2018-04-12T03:15:05.522Z,69.10
2018-04-12T03:17:33.930Z,74.10
2018-04-12T03:20:01.460Z,66.10
2018-04-12T03:22:29.017Z,83.20
2018-04-12T03:24:56.537Z,70.77
2018-04-12T03:27:24.107Z,66.83
2018-04-12T03:29:51.644Z,73.90
2018-04-12T03:32:19.182Z,73.73
2018-04-12T03:34:46.704Z,69.17
2018-04-12T03:37:14.256Z,72.20
2018-04-12T03:39:41.791Z,64.97
2018-04-12T03:42:10.274Z,66.33
2018-04-12T03:44:37.808Z,71.33
2018-04-12T03:47:05.346Z,74.43
2018-04-12T03:49:32.876Z,71.37
2018-04-12T03:52:00.431Z,77.57
2018-04-12T03:54:28.018Z,73.63
2018-04-12T03:56:55.658Z,66.63
2018-04-12T03:59:23.183Z,72.37
2018-04-12T04:01:50.742Z,74.90
2018-04-12T04:04:18.266Z,69.73
2018-04-12T04:06:45.884Z,87.87
2018-04-12T04:09:14.511Z,69.53
2018-04-12T04:11:42.044Z,69.47
2018-04-12T04:14:23.966Z,77.80
2018-04-12T04:17:04.180Z,71.60
2018-04-12T04:19:43.647Z,72.97
2018-04-12T04:22:12.064Z,73.67
2018-04-12T04:24:39.588Z,77.17
2018-04-12T04:27:07.115Z,70.03
2018-04-12T04:29:34.657Z,73.63
2018-04-12T04:32:02.178Z,78.03
2018-04-12T04:34:29.723Z,70.10
2018-04-12T04:36:57.363Z,82.83
2018-04-12T04:39:24.902Z,76.03
2018-04-12T04:41:53.195Z,75.33
2018-04-12T04:44:21.594Z,73.47
2018-04-12T04:46:49.111Z,86.03
2018-04-12T04:49:16.643Z,75.27
2018-04-12T04:51:44.930Z,88.77
2018-04-12T04:54:12.492Z,80.77
2018-04-12T04:56:40.031Z,66.80
2018-04-12T04:59:07.682Z,87.80
2018-04-12T05:01:35.198Z,76.47
2018-04-12T05:04:02.723Z,69.70
2018-04-12T05:06:31.034Z,69.40
2018-04-12T05:08:58.558Z,74.07
2018-04-12T05:11:26.107Z,75.43
2018-04-12T05:13:53.644Z,65.57
2018-04-12T05:16:21.193Z,89.67
2018-04-12T05:18:48.714Z,70.10
2018-04-12T05:21:17.007Z,67.27
2018-04-12T05:23:44.647Z,67.53
2018-04-12T05:26:13.320Z,67.70
2018-04-12T05:28:40.883Z,64.90
2018-04-12T05:31:08.463Z,65.03
2018-04-12T05:33:35.982Z,68.20
2018-04-12T05:36:03.519Z,69.60
2018-04-12T05:38:31.214Z,68.67
2018-04-12T05:40:59.520Z,62.93
2018-04-12T05:43:27.051Z,62.97
2018-04-12T05:45:54.588Z,61.53
2018-04-12T05:48:22.111Z,67.50
2018-04-12T05:50:50.432Z,63.40
2018-04-12T05:53:19.582Z,57.83
2018-04-12T05:55:47.130Z,60.00
2018-04-12T05:58:14.675Z,57.67
2018-04-12T06:00:42.230Z,72.70
2018-04-12T06:03:09.793Z,68.63
2018-04-12T06:05:37.339Z,64.87
2018-04-12T06:08:04.897Z,57.57
2018-04-12T06:10:33.226Z,63.40
2018-04-12T06:13:00.767Z,56.90
2018-04-12T06:15:28.407Z,56.30
2018-04-12T06:17:56.114Z,59.80
2018-04-12T06:20:23.702Z,60.20
2018-04-12T06:22:51.247Z,55.37
2018-04-12T06:25:18.914Z,57.53
2018-04-12T06:27:46.467Z,57.80
2018-04-12T06:30:14.799Z,55.10
2018-04-12T06:32:42.338Z,56.40
2018-04-12T06:35:09.913Z,62.10
2018-04-12T06:37:37.482Z,65.03
2018-04-12T06:40:05.002Z,55.93
2018-04-12T06:42:32.851Z,57.10
2018-04-12T06:45:00.490Z,54.20
2018-04-12T06:47:28.131Z,48.50
2018-04-12T06:49:55.655Z,57.40
2018-04-12T06:52:23.202Z,47.57
2018-04-12T06:54:50.821Z,62.77
2018-04-12T06:57:18.471Z,48.57
2018-04-12T06:59:46.248Z,51.20
2018-04-12T07:02:14.735Z,54.50
2018-04-12T07:04:42.274Z,49.23
2018-04-12T07:07:09.819Z,51.07
2018-04-12T07:09:37.347Z,57.17
2018-04-12T07:12:05.007Z,46.67
2018-04-12T07:14:32.523Z,52.83
2018-04-12T07:17:00.067Z,50.30
2018-04-12T07:19:27.591Z,43.23
2018-04-12T07:21:55.905Z,53.87
2018-04-12T07:24:23.428Z,45.30
2018-04-12T07:26:51.055Z,46.10
2018-04-12T07:29:18.618Z,44.30
2018-04-12T07:31:46.147Z,50.87
2018-04-12T07:34:13.702Z,43.50
2018-04-12T07:36:41.259Z,49.40
2018-04-12T07:39:08.827Z,44.03
2018-04-12T07:41:37.144Z,53.23
2018-04-12T07:44:04.710Z,48.03
2018-04-12T07:46:32.235Z,46.20
2018-04-12T07:48:59.826Z,36.37
2018-04-12T07:51:27.352Z,46.17
2018-04-12T07:53:54.902Z,36.53
2018-04-12T07:56:22.425Z,40.60
2018-04-12T07:58:49.989Z,46.30
2018-04-12T08:01:17.539Z,41.47
2018-04-12T08:03:45.176Z,45.10
2018-04-12T08:06:12.799Z,46.07
2018-04-12T08:08:40.351Z,40.67
2018-04-12T08:11:07.875Z,38.97
2018-04-12T08:13:36.186Z,42.13
2018-04-12T08:16:03.752Z,39.80
2018-04-12T08:18:31.289Z,36.90
2018-04-12T08:20:58.909Z,37.43
2018-04-12T08:23:26.558Z,52.10
2018-04-12T08:25:54.100Z,45.67
2018-04-12T08:28:21.651Z,52.27
2018-04-12T08:30:49.218Z,43.87
2018-04-12T08:33:17.846Z,35.53
2018-04-12T08:35:45.371Z,41.67
2018-04-12T08:38:13.073Z,37.80
2018-04-12T08:40:40.601Z,35.37
2018-04-12T08:43:08.413Z,32.57
2018-04-12T08:45:36.719Z,46.47
2018-04-12T08:48:04.250Z,41.30
2018-04-12T08:50:31.798Z,50.23
2018-04-12T08:52:59.322Z,60.07
2018-04-12T08:55:26.861Z,39.88
2018-04-12T08:57:54.398Z,42.33
2018-04-12T09:00:21.948Z,43.93
2018-04-12T09:02:49.481Z,57.37
2018-04-12T09:05:18.397Z,36.78
2018-04-12T09:07:45.911Z,53.03
2018-04-12T09:10:13.472Z,34.63
2018-04-12T09:12:40.999Z,35.67
2018-04-12T09:15:08.673Z,45.77
2018-04-12T09:17:36.192Z,37.67
2018-04-12T09:20:03.726Z,40.33
2018-04-12T09:22:31.266Z,40.20
2018-04-12T09:24:58.816Z,35.37
2018-04-12T09:27:26.334Z,33.07
2018-04-12T09:29:54.739Z,37.33
2018-04-12T09:32:22.274Z,36.70
2018-04-12T09:34:49.822Z,34.13
2018-04-12T09:37:17.360Z,29.67
2018-04-12T09:39:44.947Z,38.00
2018-04-12T09:42:12.483Z,37.13
2018-04-12T09:44:40.019Z,39.63
2018-04-12T09:49:39.548Z,30.13
2018-04-12T09:52:07.273Z,35.70
2018-04-12T09:54:35.255Z,28.80
2018-04-12T09:57:02.777Z,36.97
2018-04-12T09:59:30.411Z,32.97
2018-04-12T10:02:01.945Z,26.97
2018-04-12T10:04:29.483Z,31.30
2018-04-12T10:07:02.660Z,34.00
2018-04-12T10:09:30.185Z,34.40
2018-04-12T10:11:57.802Z,29.53
2018-04-12T10:14:26.167Z,33.53
2018-04-12T10:16:54.470Z,30.63
2018-04-12T10:19:22.007Z,34.00
2018-04-12T10:21:49.546Z,29.10
2018-04-12T10:24:17.062Z,35.57
2018-04-12T10:26:44.609Z,38.90
2018-04-12T10:29:12.915Z,33.27
2018-04-12T10:31:40.465Z,33.30
2018-04-12T10:34:08.008Z,32.67
2018-04-12T10:36:35.558Z,24.60
2018-04-12T10:39:03.097Z,36.70
2018-04-12T10:41:30.840Z,36.37
2018-04-12T10:43:58.352Z,30.63
2018-04-12T10:46:26.649Z,39.70
2018-04-12T10:48:54.170Z,36.10
2018-04-12T10:51:21.740Z,36.27
2018-04-12T10:53:49.260Z,34.33
2018-04-12T10:56:16.803Z,32.27
2018-04-12T10:58:44.327Z,31.00
2018-04-12T11:01:12.642Z,32.30
2018-04-12T11:03:40.218Z,28.50
2018-04-12T11:08:40.715Z,41.20
2018-04-12T11:11:08.511Z,35.40
2018-04-12T11:13:36.074Z,31.93
2018-04-12T11:16:03.741Z,28.60
2018-04-12T11:18:31.364Z,30.37
2018-04-12T11:20:58.833Z,29.43
2018-04-12T11:23:26.410Z,23.17
2018-04-12T11:25:54.048Z,24.30
2018-04-12T11:28:21.591Z,23.13
2018-04-12T11:30:50.619Z,27.80
2018-04-12T11:33:19.118Z,32.03
2018-04-12T11:35:46.662Z,26.77
2018-04-12T11:38:14.206Z,27.20
2018-04-12T11:40:41.772Z,24.23
2018-04-12T11:43:09.340Z,25.73
2018-04-12T11:45:36.931Z,29.03
2018-04-12T11:48:04.520Z,21.47
2018-04-12T11:50:32.823Z,28.83
2018-04-12T11:53:00.358Z,21.33
2018-04-12T11:55:28.006Z,17.90
2018-04-12T11:57:56.270Z,18.90
2018-04-12T12:00:23.824Z,29.13
2018-04-12T12:02:51.362Z,18.50
2018-04-12T12:05:18.946Z,20.97
2018-04-12T12:07:46.547Z,24.37
2018-04-12T12:10:14.086Z,30.37
2018-04-12T12:12:41.647Z,17.83
2018-04-12T12:15:09.180Z,22.07
2018-04-12T12:17:36.734Z,26.00
2018-04-12T12:20:04.320Z,23.30
2018-04-12T12:22:31.860Z,18.00
2018-04-12T12:24:59.431Z,21.83
2018-04-12T12:27:27.816Z,20.10
2018-04-12T12:29:55.346Z,19.80
2018-04-12T12:32:22.923Z,16.27
2018-04-12T12:34:50.467Z,21.50
2018-04-12T12:37:18.018Z,20.43
2018-04-12T12:39:45.674Z,19.93
2018-04-12T12:42:13.191Z,20.10
2018-04-12T12:44:40.751Z,29.20
2018-04-12T12:47:08.267Z,21.00
2018-04-12T12:49:35.814Z,17.20
2018-04-12T12:52:04.095Z,19.33
2018-04-12T12:54:31.634Z,16.73
2018-04-12T12:56:59.154Z,16.70
2018-04-12T12:59:27.494Z,15.33
2018-04-12T13:01:55.828Z,19.10
2018-04-12T13:04:26.367Z,25.98
2018-04-12T13:06:54.079Z,21.57
2018-04-12T13:09:22.446Z,20.07
2018-04-12T13:11:49.974Z,24.70
2018-04-12T13:14:17.527Z,15.47
2018-04-12T13:16:45.108Z,23.43
2018-04-12T13:19:13.457Z,23.80
2018-04-12T13:21:41.380Z,19.53
2018-04-12T13:24:08.995Z,13.57
2018-04-12T13:26:37.303Z,14.30
2018-04-12T13:29:05.033Z,23.93
2018-04-12T13:31:32.567Z,28.20
2018-04-12T13:34:00.122Z,20.20
2018-04-12T13:36:27.702Z,19.17
2018-04-12T13:38:55.242Z,20.37
2018-04-12T13:41:22.751Z,24.53
2018-04-12T13:43:50.299Z,18.40
2018-04-12T13:46:17.834Z,17.50
2018-04-12T13:48:46.173Z,14.87
2018-04-12T13:51:14.491Z,22.07
2018-04-12T13:53:42.019Z,27.43
2018-04-12T13:56:09.660Z,18.40
2018-04-12T13:58:37.179Z,14.40
2018-04-12T14:01:05.474Z,19.00
2018-04-12T14:03:32.987Z,25.33
2018-04-12T14:06:01.295Z,22.93
2018-04-12T14:08:28.834Z,16.43
2018-04-12T14:10:56.373Z,19.43
2018-04-12T14:13:23.910Z,24.83
2018-04-12T14:15:51.438Z,28.93
2018-04-12T14:18:18.959Z,24.77
2018-04-12T14:20:47.253Z,21.60
2018-04-12T14:23:14.771Z,22.70
2018-04-12T14:25:43.083Z,17.40
2018-04-12T14:28:10.604Z,15.50
2018-04-12T14:30:38.159Z,26.50
2018-04-12T14:33:05.683Z,25.10
2018-04-12T14:35:33.236Z,20.90
2018-04-12T14:38:00.827Z,20.57
2018-04-12T14:40:29.164Z,19.20
2018-04-12T14:42:56.695Z,22.70
2018-04-12T14:45:24.263Z,24.23
2018-04-12T14:47:51.847Z,21.53
2018-04-12T14:50:20.148Z,23.20
2018-04-12T14:52:47.705Z,19.63
2018-04-12T14:55:15.266Z,18.03
2018-04-12T14:57:42.885Z,14.27
2018-04-12T15:00:11.154Z,17.53
2018-04-12T15:02:38.692Z,19.67
2018-04-12T15:05:06.235Z,22.53
2018-04-12T15:07:33.774Z,26.33
2018-04-12T15:10:01.296Z,25.33
2018-04-12T15:12:30.626Z,18.83
2018-04-12T15:14:58.170Z,22.33
2018-04-12T15:17:25.730Z,20.17
2018-04-12T15:19:53.300Z,24.90
2018-04-12T15:22:21.608Z,26.17
2018-04-12T15:24:49.139Z,29.43
2018-04-12T15:27:19.217Z,32.33
2018-04-12T15:29:46.775Z,35.07
2018-04-12T15:32:15.280Z,30.23
2018-04-12T15:34:42.827Z,33.20
2018-04-12T15:37:10.517Z,22.67
2018-04-12T15:39:38.871Z,26.42
2018-04-12T15:42:06.406Z,22.40
2018-04-12T15:44:34.020Z,26.20
2018-04-12T15:47:01.615Z,22.33
2018-04-12T15:49:29.149Z,22.73
2018-04-12T15:51:56.701Z,30.47
2018-04-12T15:54:25.044Z,22.77
2018-04-12T15:56:52.583Z,24.63
2018-04-12T15:59:20.111Z,26.37
2018-04-12T16:01:47.775Z,32.47
2018-04-12T16:04:15.315Z,27.20
2018-04-12T16:06:43.744Z,37.58
2018-04-12T16:09:11.310Z,29.67
2018-04-12T16:11:38.857Z,25.47
2018-04-12T16:14:06.389Z,28.93
2018-04-12T16:16:33.956Z,24.20
2018-04-12T16:19:01.504Z,29.20
2018-04-12T16:21:29.052Z,27.57
2018-04-12T16:23:56.602Z,29.57
2018-04-12T16:26:24.900Z,30.00
2018-04-12T16:28:52.668Z,38.63
2018-04-12T16:31:20.243Z,43.50
2018-04-12T16:33:47.786Z,32.80
2018-04-12T16:36:15.311Z,29.20
2018-04-12T16:38:42.850Z,40.23
2018-04-12T16:41:10.374Z,34.10
2018-04-12T16:43:38.738Z,38.03
2018-04-12T16:46:06.402Z,37.57
2018-04-12T16:48:33.935Z,34.47
2018-04-12T16:51:01.482Z,33.30
2018-04-12T16:53:29.987Z,43.87
2018-04-12T16:55:57.741Z,37.10
2018-04-12T16:58:25.350Z,31.73
2018-04-12T17:00:52.911Z,33.80
2018-04-12T17:03:20.464Z,40.33
2018-04-12T17:05:48.027Z,37.30
2018-04-12T17:08:15.554Z,36.20
2018-04-12T17:10:43.178Z,32.55
2018-04-12T17:13:10.722Z,32.13
2018-04-12T17:15:38.268Z,39.30
2018-04-12T17:18:05.844Z,41.20
2018-04-12T17:20:34.150Z,40.00
2018-04-12T17:23:02.443Z,34.00
2018-04-12T17:25:31.006Z,42.97
2018-04-12T17:27:58.542Z,38.93
2018-04-12T17:30:26.080Z,35.27
2018-04-12T17:32:53.634Z,34.97
2018-04-12T17:35:21.222Z,36.00
2018-04-12T17:37:48.748Z,37.00
2018-04-12T17:40:16.282Z,34.77
2018-04-12T17:42:43.803Z,34.03
2018-04-12T17:45:11.354Z,38.70
2018-04-12T17:47:38.903Z,44.33
2018-04-12T17:50:06.481Z,41.20
2018-04-12T17:52:34.062Z,46.57
2018-04-12T17:55:02.379Z,40.97
2018-04-12T17:57:29.922Z,49.80
2018-04-12T17:59:57.456Z,35.40
2018-04-12T18:02:25.113Z,44.33
2018-04-12T18:04:52.662Z,55.77
2018-04-12T18:07:20.191Z,46.47
2018-04-12T18:09:47.735Z,57.07
2018-04-12T18:12:15.278Z,55.33
2018-04-12T18:14:42.877Z,48.93
2018-04-12T18:17:11.219Z,72.63
2018-04-12T18:19:38.832Z,47.50
2018-04-12T18:22:06.376Z,49.40
2018-04-12T18:24:34.110Z,56.00
2018-04-12T18:27:01.758Z,45.33
2018-04-12T18:29:29.305Z,54.27
2018-04-12T18:31:56.873Z,51.83
2018-04-12T18:34:24.461Z,48.30
2018-04-12T18:36:52.773Z,45.70
2018-04-12T18:39:20.296Z,52.17
2018-04-12T18:41:47.870Z,48.30
2018-04-12T18:44:15.482Z,53.70
2018-04-12T18:46:43.052Z,48.53
2018-04-12T18:49:10.675Z,48.23
2018-04-12T18:51:39.066Z,48.30
2018-04-12T18:54:07.327Z,50.03
2018-04-12T18:56:34.865Z,64.40
2018-04-12T18:59:02.394Z,58.00
2018-04-12T19:01:29.940Z,43.03
2018-04-12T19:03:57.516Z,48.10
2018-04-12T19:06:25.157Z,46.27
2018-04-12T19:08:52.697Z,45.20
2018-04-12T19:11:20.226Z,48.40
2018-04-12T19:13:47.750Z,42.30
2018-04-12T19:16:16.064Z,57.57
2018-04-12T19:18:43.585Z,46.53
2018-04-12T19:21:11.140Z,52.60
2018-04-12T19:23:38.838Z,57.53
2018-04-12T19:26:07.172Z,46.90
2018-04-12T19:28:34.702Z,46.60
2018-04-12T19:31:02.229Z,48.00
2018-04-12T19:33:29.770Z,47.97
2018-04-12T19:35:57.313Z,48.20
2018-04-12T19:38:24.878Z,62.43
2018-04-12T19:40:52.407Z,57.33
2018-04-12T19:43:19.958Z,58.10
2018-04-12T19:45:47.530Z,48.80
2018-04-12T19:48:15.072Z,53.10
2018-04-12T19:50:42.587Z,54.23
2018-04-12T19:53:10.151Z,49.87
2018-04-12T19:55:37.683Z,46.07
2018-04-12T19:58:05.246Z,55.70
2018-04-12T20:00:32.795Z,51.97
2018-04-12T20:03:00.382Z,54.83
2018-04-12T20:05:27.910Z,66.60
2018-04-12T20:07:56.291Z,56.77
2018-04-12T20:10:24.688Z,53.13
2018-04-12T20:12:52.223Z,51.00
2018-04-12T20:15:19.827Z,67.53
2018-04-12T20:17:47.385Z,47.67
2018-04-12T20:20:14.923Z,61.40
2018-04-12T20:22:43.319Z,56.80
2018-04-12T20:25:10.858Z,60.90
2018-04-12T20:27:39.312Z,54.17
2018-04-12T20:30:06.898Z,73.83
2018-04-12T20:32:35.248Z,65.90
2018-04-12T20:35:02.795Z,53.60
2018-04-12T20:37:30.313Z,59.70
2018-04-12T20:39:57.884Z,58.03
2018-04-12T20:42:25.423Z,54.17
2018-04-12T20:44:52.954Z,60.30
2018-04-12T20:47:20.468Z,70.70
2018-04-12T20:49:48.780Z,57.20
2018-04-12T20:52:16.306Z,55.60
2018-04-12T20:54:44.185Z,85.33
2018-04-12T20:57:11.816Z,63.30
2018-04-12T20:59:39.371Z,66.70
2018-04-12T21:02:06.904Z,56.70
2018-04-12T21:04:34.449Z,57.70
2018-04-12T21:07:01.989Z,65.87
2018-04-12T21:09:29.542Z,67.77
2018-04-12T21:11:57.066Z,65.00
2018-04-12T21:14:24.665Z,64.53
2018-04-12T21:16:52.158Z,60.90
2018-04-12T21:19:19.946Z,67.30
2018-04-12T21:21:47.471Z,66.90
2018-04-12T21:24:15.015Z,65.57
2018-04-12T21:26:42.560Z,67.93
2018-04-12T21:29:10.131Z,69.20
2018-04-12T21:31:37.695Z,71.43
2018-04-12T21:34:06.028Z,70.47
2018-04-12T21:36:33.555Z,66.07
2018-04-12T21:39:01.078Z,78.80
2018-04-12T21:41:28.617Z,61.93
2018-04-12T21:43:56.138Z,68.50
2018-04-12T21:46:24.482Z,60.60
2018-04-12T21:48:52.013Z,68.57
2018-04-12T21:51:20.350Z,60.00
2018-04-12T21:53:47.890Z,70.50
2018-04-12T21:56:15.428Z,66.03
2018-04-12T21:58:43.090Z,61.83
2018-04-12T22:01:10.618Z,65.20
2018-04-12T22:03:38.160Z,66.50
2018-04-12T22:06:05.702Z,74.37
2018-04-12T22:08:33.222Z,82.47
2018-04-12T22:11:01.632Z,72.50
2018-04-12T22:13:29.159Z,62.87
2018-04-12T22:15:57.818Z,73.47
2018-04-12T22:18:25.357Z,71.20
2018-04-12T22:20:52.907Z,69.83
2018-04-12T22:23:20.437Z,70.07
2018-04-12T22:25:48.743Z,79.23
2018-04-12T22:28:16.254Z,83.70
2018-04-12T22:30:43.790Z,68.83
2018-04-12T22:33:11.442Z,73.27
2018-04-12T22:35:38.988Z,69.40
2018-04-12T22:38:06.516Z,66.00
2018-04-12T22:40:34.825Z,69.27
2018-04-12T22:43:02.372Z,85.73
2018-04-12T22:45:29.919Z,75.00
2018-04-12T22:47:57.446Z,72.47
2018-04-12T22:50:24.983Z,68.77
2018-04-12T22:52:52.523Z,71.00
2018-04-12T22:55:20.051Z,77.07
2018-04-12T22:57:48.451Z,68.63
2018-04-12T23:00:18.766Z,67.90
2018-04-12T23:02:46.306Z,71.30
2018-04-12T23:05:13.822Z,72.20
2018-04-12T23:07:41.369Z,65.90
2018-04-12T23:10:08.983Z,71.77
2018-04-12T23:12:37.713Z,71.57
2018-04-12T23:15:05.230Z,72.33
2018-04-12T23:17:32.766Z,66.57
2018-04-12T23:20:00.455Z,75.37
2018-04-12T23:22:28.071Z,72.40
2018-04-12T23:24:56.378Z,71.67
2018-04-12T23:27:23.922Z,89.67
2018-04-12T23:29:51.747Z,71.13
2018-04-12T23:32:19.402Z,77.97
2018-04-12T23:34:46.939Z,71.57
2018-04-12T23:37:14.474Z,78.67
2018-04-12T23:39:41.985Z,75.83
2018-04-12T23:42:10.302Z,76.07
2018-04-12T23:44:38.878Z,73.13
2018-04-12T23:47:06.429Z,67.70
2018-04-12T23:49:34.177Z,72.73
2018-04-12T23:52:01.857Z,71.07
2018-04-12T23:54:30.175Z,69.30
2018-04-12T23:56:57.729Z,71.30
2018-04-12T23:59:25.461Z,69.83
